createdAt,value
2023-02-28T00:02:25.848Z,6.63
2023-02-28T00:05:04.504Z,6.45
2023-02-28T00:07:34.492Z,6.72
2023-02-28T00:10:03.239Z,6.65
2023-02-28T00:12:32.769Z,7.35
2023-02-28T00:15:01.334Z,7.03
2023-02-28T00:17:29.869Z,6.63
2023-02-28T00:20:02.896Z,7.35
2023-02-28T00:22:33.236Z,7.05
2023-02-28T00:25:01.970Z,7.32
2023-02-28T00:27:30.522Z,7.40
2023-02-28T00:29:59.336Z,7.38
2023-02-28T00:32:27.963Z,7.03
2023-02-28T00:34:56.736Z,6.43
2023-02-28T00:37:25.618Z,6.00
2023-02-28T00:39:55.665Z,7.15
2023-02-28T00:42:24.544Z,7.40
2023-02-28T00:44:53.078Z,6.38
2023-02-28T00:47:21.629Z,7.07
2023-02-28T00:49:50.471Z,6.90
2023-02-28T00:52:19.211Z,7.88
2023-02-28T00:54:47.743Z,7.82
2023-02-28T00:57:18.554Z,7.95
2023-02-28T00:59:47.153Z,9.35
2023-02-28T01:02:15.779Z,8.23
2023-02-28T01:04:44.290Z,8.98
2023-02-28T01:07:13.649Z,8.65
2023-02-28T01:09:42.079Z,7.72
2023-02-28T01:12:12.002Z,8.55
2023-02-28T01:14:42.213Z,8.82
2023-02-28T01:17:12.214Z,8.18
2023-02-28T01:19:40.702Z,8.60
2023-02-28T01:22:10.055Z,8.50
2023-02-28T01:24:39.735Z,9.07
2023-02-28T01:27:08.337Z,9.45
2023-02-28T01:29:39.306Z,8.85
2023-02-28T01:32:09.533Z,8.15
2023-02-28T01:34:38.117Z,8.52
2023-02-28T01:37:06.752Z,8.48
2023-02-28T01:39:35.560Z,8.70
2023-02-28T01:42:05.730Z,10.60
2023-02-28T01:45:00.519Z,11.40
2023-02-28T01:47:34.128Z,9.20
2023-02-28T01:50:06.404Z,7.03
2023-02-28T01:52:36.289Z,8.32
2023-02-28T01:55:08.602Z,8.68
2023-02-28T01:57:42.832Z,8.18
2023-02-28T02:00:15.493Z,8.75
2023-02-28T02:02:53.451Z,8.38
2023-02-28T02:05:24.822Z,8.00
2023-02-28T02:07:57.609Z,8.07
2023-02-28T02:10:31.698Z,8.57
2023-02-28T02:13:14.146Z,7.93
2023-02-28T02:15:48.171Z,7.93
2023-02-28T02:18:26.613Z,7.70
2023-02-28T02:21:45.343Z,7.70
2023-02-28T02:24:51.108Z,7.97
2023-02-28T02:27:34.887Z,7.97
2023-02-28T02:30:43.952Z,7.82
2023-02-28T02:33:38.475Z,7.13
2023-02-28T02:36:16.406Z,6.78
2023-02-28T02:38:51.275Z,6.95
2023-02-28T02:41:26.024Z,8.23
2023-02-28T02:44:00.557Z,7.82
2023-02-28T02:46:32.727Z,7.13
2023-02-28T02:49:03.218Z,8.70
2023-02-28T02:51:35.276Z,8.30
2023-02-28T02:54:07.901Z,8.43
2023-02-28T02:56:38.604Z,8.40
2023-02-28T02:59:12.409Z,7.80
2023-02-28T03:01:43.371Z,7.97
2023-02-28T03:04:15.504Z,8.13
2023-02-28T03:06:45.518Z,7.95
2023-02-28T03:11:44.736Z,7.07
2023-02-28T03:14:28.431Z,8.55
2023-02-28T03:17:15.113Z,7.88
2023-02-28T03:20:08.119Z,7.85
2023-02-28T03:22:59.484Z,7.93
2023-02-28T03:25:35.523Z,7.78
2023-02-28T03:28:10.795Z,9.25
2023-02-28T03:30:48.223Z,7.95
2023-02-28T03:33:20.101Z,9.00
2023-02-28T03:35:53.728Z,8.07
2023-02-28T03:38:27.811Z,9.98
2023-02-28T03:41:07.808Z,9.05
2023-02-28T03:43:42.465Z,7.85
2023-02-28T03:46:14.153Z,8.93
2023-02-28T03:48:46.827Z,7.15
2023-02-28T03:51:20.662Z,8.43
2023-02-28T03:53:55.700Z,7.50
2023-02-28T03:56:28.715Z,8.15
2023-02-28T03:59:02.616Z,8.43
2023-02-28T04:01:36.049Z,8.52
2023-02-28T04:04:05.145Z,8.13
2023-02-28T04:06:35.577Z,9.45
2023-02-28T04:09:08.950Z,8.18
2023-02-28T04:11:39.854Z,8.82
2023-02-28T04:14:10.111Z,8.88
2023-02-28T04:16:41.914Z,8.63
2023-02-28T04:19:14.369Z,9.00
2023-02-28T04:21:44.689Z,9.13
2023-02-28T04:24:17.303Z,9.27
2023-02-28T04:26:47.625Z,8.73
2023-02-28T04:29:20.894Z,8.95
2023-02-28T04:31:51.147Z,8.75
2023-02-28T04:34:20.150Z,8.95
2023-02-28T04:36:59.641Z,8.85
2023-02-28T04:39:39.017Z,8.98
2023-02-28T04:42:07.531Z,8.02
2023-02-28T04:44:36.352Z,9.68
2023-02-28T04:47:04.815Z,9.38
2023-02-28T04:49:33.555Z,8.77
2023-02-28T04:52:02.295Z,8.52
2023-02-28T04:54:31.133Z,9.18
2023-02-28T04:57:00.792Z,10.30
2023-02-28T04:59:29.187Z,8.50
2023-02-28T05:01:58.154Z,8.93
2023-02-28T05:04:26.790Z,9.70
2023-02-28T05:06:56.482Z,9.35
2023-02-28T05:09:25.123Z,9.60
2023-02-28T05:11:53.999Z,10.15
2023-02-28T05:14:25.316Z,9.43
2023-02-28T05:16:54.461Z,10.88
2023-02-28T05:19:23.506Z,9.20
2023-02-28T05:21:54.298Z,10.43
2023-02-28T05:24:24.834Z,10.88
2023-02-28T05:26:55.618Z,10.77
2023-02-28T05:29:25.657Z,10.10
2023-02-28T05:31:54.289Z,10.13
2023-02-28T05:34:23.009Z,8.77
2023-02-28T05:36:51.550Z,9.48
2023-02-28T05:39:21.016Z,9.65
2023-02-28T05:41:49.530Z,7.88
2023-02-28T05:44:18.410Z,9.85
2023-02-28T05:46:48.356Z,9.50
2023-02-28T05:49:16.755Z,9.15
2023-02-28T05:51:46.047Z,10.00
2023-02-28T05:54:14.820Z,9.77
2023-02-28T05:56:45.248Z,9.15
2023-02-28T05:59:14.120Z,8.50
2023-02-28T06:01:49.121Z,9.95
2023-02-28T06:04:31.585Z,8.73
2023-02-28T06:07:00.818Z,7.70
2023-02-28T06:09:30.309Z,9.18
2023-02-28T06:12:00.235Z,9.38
2023-02-28T06:14:28.815Z,8.77
2023-02-28T06:16:58.942Z,8.50
2023-02-28T06:19:29.776Z,9.25
2023-02-28T06:22:00.785Z,8.02
2023-02-28T06:24:30.213Z,9.27
2023-02-28T06:26:59.988Z,9.25
2023-02-28T06:29:28.668Z,9.30
2023-02-28T06:31:57.583Z,7.15
2023-02-28T06:34:26.053Z,8.35
2023-02-28T06:36:55.913Z,7.35
2023-02-28T06:39:24.358Z,8.30
2023-02-28T06:41:56.011Z,8.45
2023-02-28T06:44:25.752Z,8.68
2023-02-28T06:46:54.724Z,9.02
2023-02-28T06:49:23.558Z,9.70
2023-02-28T06:51:51.919Z,10.25
2023-02-28T06:54:21.800Z,10.95
2023-02-28T06:56:51.189Z,9.98
2023-02-28T06:59:19.950Z,9.55
2023-02-28T07:01:48.495Z,8.88
2023-02-28T07:04:17.107Z,10.18
2023-02-28T07:06:45.890Z,9.73
2023-02-28T07:09:15.014Z,10.85
2023-02-28T07:11:45.169Z,9.52
2023-02-28T07:14:13.660Z,8.57
2023-02-28T07:16:42.182Z,7.95
2023-02-28T07:19:10.637Z,8.73
2023-02-28T07:21:39.585Z,8.65
2023-02-28T07:24:08.576Z,8.55
2023-02-28T07:26:37.750Z,7.32
2023-02-28T07:29:08.073Z,6.57
2023-02-28T07:31:36.820Z,6.57
2023-02-28T07:34:05.673Z,6.38
2023-02-28T07:36:34.561Z,6.45
2023-02-28T07:39:03.749Z,7.43
2023-02-28T07:41:35.005Z,6.72
2023-02-28T07:44:04.484Z,6.97
2023-02-28T07:46:37.325Z,7.32
2023-02-28T07:49:06.875Z,7.15
2023-02-28T07:51:35.400Z,7.88
2023-02-28T07:54:04.078Z,6.35
2023-02-28T07:56:33.139Z,7.30
2023-02-28T07:59:02.736Z,7.00
2023-02-28T08:01:31.998Z,6.53
2023-02-28T08:04:02.094Z,7.88
2023-02-28T08:06:30.718Z,6.68
2023-02-28T08:08:59.158Z,5.88
2023-02-28T08:11:28.016Z,6.20
2023-02-28T08:13:57.410Z,6.75
2023-02-28T08:16:26.342Z,6.28
2023-02-28T08:18:55.099Z,6.35
2023-02-28T08:21:25.117Z,6.45
2023-02-28T08:23:53.938Z,6.35
2023-02-28T08:26:22.942Z,6.35
2023-02-28T08:28:51.806Z,6.57
2023-02-28T08:31:21.016Z,5.95
2023-02-28T08:33:52.226Z,6.47
2023-02-28T08:36:22.518Z,5.75
2023-02-28T08:38:52.387Z,5.55
2023-02-28T08:41:21.242Z,5.60
2023-02-28T08:43:49.779Z,5.65
2023-02-28T08:46:18.310Z,5.28
2023-02-28T08:48:47.020Z,5.38
2023-02-28T08:51:19.804Z,6.10
2023-02-28T08:53:50.456Z,4.88
2023-02-28T08:56:20.608Z,5.68
2023-02-28T08:58:50.388Z,15.10
2023-02-28T09:01:20.952Z,11.82
2023-02-28T09:03:50.525Z,7.50
2023-02-28T09:06:21.165Z,11.88
2023-02-28T09:08:50.579Z,13.52
2023-02-28T09:11:20.924Z,11.60
2023-02-28T09:13:49.566Z,12.05
2023-02-28T09:16:19.370Z,9.23
2023-02-28T09:18:48.076Z,8.75
2023-02-28T09:21:18.169Z,8.55
2023-02-28T09:23:48.718Z,6.63
2023-02-28T09:26:18.121Z,6.13
2023-02-28T09:28:48.940Z,6.03
2023-02-28T09:31:22.455Z,7.13
2023-02-28T09:33:51.708Z,8.27
2023-02-28T09:36:21.134Z,6.13
2023-02-28T09:38:52.523Z,12.27
2023-02-28T09:41:23.650Z,11.02
2023-02-28T09:43:57.718Z,4.72
2023-02-28T09:46:35.502Z,5.88
2023-02-28T09:49:07.791Z,6.35
2023-02-28T09:51:46.490Z,6.07
2023-02-28T09:54:19.986Z,5.35
2023-02-28T09:56:53.671Z,5.30
2023-02-28T09:59:49.429Z,5.97
2023-02-28T10:02:48.396Z,5.93
2023-02-28T10:05:18.935Z,6.15
2023-02-28T10:08:10.160Z,5.63
2023-02-28T10:10:42.718Z,5.45
2023-02-28T10:13:19.673Z,5.75
2023-02-28T10:15:54.632Z,5.30
2023-02-28T10:18:27.926Z,5.93
2023-02-28T10:20:58.341Z,5.05
2023-02-28T10:23:30.605Z,5.57
2023-02-28T10:26:03.548Z,5.07
2023-02-28T10:28:33.342Z,5.15
2023-02-28T10:31:04.492Z,5.88
2023-02-28T10:33:36.395Z,5.00
2023-02-28T10:38:39.293Z,6.30
2023-02-28T10:41:10.452Z,6.00
2023-02-28T10:43:40.430Z,5.07
2023-02-28T10:46:26.933Z,5.93
2023-02-28T10:49:05.763Z,6.00
2023-02-28T10:51:40.427Z,6.78
2023-02-28T10:54:18.191Z,9.50
2023-02-28T10:56:46.875Z,26.95
2023-02-28T10:59:33.215Z,9.40
2023-02-28T11:02:03.224Z,12.70
2023-02-28T11:04:39.132Z,10.07
2023-02-28T11:07:20.660Z,15.82
2023-02-28T11:09:52.534Z,15.25
2023-02-28T11:12:27.360Z,5.88
2023-02-28T11:14:59.153Z,6.00
2023-02-28T11:17:31.633Z,5.50
2023-02-28T11:20:04.361Z,5.78
2023-02-28T11:22:37.127Z,5.22
2023-02-28T11:25:12.457Z,5.63
2023-02-28T11:27:50.990Z,5.70
2023-02-28T11:30:36.357Z,6.07
2023-02-28T11:33:24.646Z,5.95
2023-02-28T11:35:54.912Z,5.10
2023-02-28T11:38:23.988Z,6.10
2023-02-28T11:41:07.297Z,5.50
2023-02-28T11:43:53.254Z,5.45
2023-02-28T11:46:32.879Z,5.40
2023-02-28T11:49:15.649Z,5.75
2023-02-28T11:51:50.682Z,5.75
2023-02-28T11:54:32.223Z,5.22
2023-02-28T11:57:06.656Z,4.88
2023-02-28T11:59:48.569Z,5.30
2023-02-28T12:02:31.482Z,5.40
2023-02-28T12:05:13.848Z,5.05
2023-02-28T12:07:54.214Z,4.63
2023-02-28T12:10:26.398Z,5.18
2023-02-28T12:13:07.464Z,5.28
2023-02-28T12:16:15.903Z,5.30
2023-02-28T12:19:03.975Z,5.25
2023-02-28T12:21:46.654Z,5.20
2023-02-28T12:24:50.471Z,5.28
2023-02-28T12:27:25.839Z,6.15
2023-02-28T12:30:01.033Z,5.65
2023-02-28T12:32:34.521Z,6.80
2023-02-28T12:35:07.026Z,4.88
2023-02-28T12:37:41.263Z,5.28
2023-02-28T12:40:14.925Z,5.80
2023-02-28T12:42:49.381Z,4.90
2023-02-28T12:45:23.011Z,5.55
2023-02-28T12:47:59.678Z,5.10
2023-02-28T12:50:31.271Z,5.50
2023-02-28T12:53:07.308Z,5.00
2023-02-28T12:55:44.666Z,5.20
2023-02-28T12:58:21.892Z,5.25
2023-02-28T13:01:09.255Z,4.93
2023-02-28T13:03:55.273Z,5.03
2023-02-28T13:06:41.551Z,5.07
2023-02-28T13:09:16.713Z,5.22
2023-02-28T13:11:47.891Z,5.80
2023-02-28T13:14:26.895Z,5.82
2023-02-28T13:17:14.306Z,6.28
2023-02-28T13:19:46.139Z,5.85
2023-02-28T13:22:38.912Z,5.88
2023-02-28T13:25:58.821Z,5.45
2023-02-28T13:29:01.612Z,5.55
2023-02-28T13:31:30.902Z,5.80
2023-02-28T13:34:17.149Z,5.70
2023-02-28T13:36:46.946Z,5.50
2023-02-28T13:39:51.668Z,5.25
2023-02-28T13:42:38.421Z,5.45
2023-02-28T13:45:27.565Z,5.18
2023-02-28T13:48:00.881Z,5.35
2023-02-28T13:50:39.012Z,6.03
2023-02-28T13:53:44.839Z,5.20
2023-02-28T13:56:28.627Z,4.93
2023-02-28T13:59:03.358Z,5.28
2023-02-28T14:01:55.182Z,5.22
2023-02-28T14:04:49.281Z,4.88
2023-02-28T14:07:22.817Z,18.02
2023-02-28T14:09:58.824Z,14.70
2023-02-28T14:12:58.986Z,9.85
2023-02-28T14:15:50.165Z,15.45
2023-02-28T14:18:27.446Z,14.07
2023-02-28T14:21:00.863Z,16.65
2023-02-28T14:23:49.141Z,12.02
2023-02-28T14:26:33.748Z,11.60
2023-02-28T14:29:29.751Z,12.52
2023-02-28T14:32:04.875Z,14.93
2023-02-28T14:34:44.503Z,12.52
2023-02-28T14:37:18.684Z,13.20
2023-02-28T14:39:48.654Z,20.10
2023-02-28T14:42:36.134Z,13.48
2023-02-28T14:45:05.503Z,15.90
2023-02-28T14:47:36.115Z,13.90
2023-02-28T14:50:07.542Z,17.40
2023-02-28T14:52:37.178Z,20.08
2023-02-28T14:55:11.624Z,19.17
2023-02-28T14:57:45.244Z,22.88
2023-02-28T15:00:19.052Z,17.17
2023-02-28T15:02:47.530Z,18.42
2023-02-28T15:05:32.182Z,14.50
2023-02-28T15:08:08.190Z,13.32
2023-02-28T15:10:37.210Z,16.10
2023-02-28T15:13:09.241Z,9.88
2023-02-28T15:16:01.897Z,16.00
2023-02-28T15:18:39.998Z,15.15
2023-02-28T15:21:15.560Z,15.02
2023-02-28T15:23:49.112Z,17.58
2023-02-28T15:26:21.090Z,12.45
2023-02-28T15:28:52.785Z,22.30
2023-02-28T15:31:26.158Z,11.10
2023-02-28T15:33:56.660Z,12.85
2023-02-28T15:36:31.588Z,7.50
2023-02-28T15:39:14.261Z,8.57
2023-02-28T15:41:44.443Z,16.35
2023-02-28T15:44:28.072Z,7.38
2023-02-28T15:47:01.048Z,5.40
2023-02-28T15:49:37.363Z,5.78
2023-02-28T15:52:07.694Z,7.15
2023-02-28T15:54:37.179Z,6.28
2023-02-28T15:57:09.656Z,7.40
2023-02-28T15:59:39.110Z,6.68
2023-02-28T16:02:19.157Z,6.18
2023-02-28T16:05:00.028Z,5.63
2023-02-28T16:07:30.757Z,6.55
2023-02-28T16:10:00.428Z,6.68
2023-02-28T16:12:31.622Z,7.93
2023-02-28T16:15:04.151Z,9.05
2023-02-28T16:17:36.600Z,8.35
2023-02-28T16:20:14.264Z,7.63
2023-02-28T16:22:44.775Z,14.43
2023-02-28T16:25:15.380Z,9.75
2023-02-28T16:27:44.940Z,17.38
2023-02-28T16:30:21.046Z,10.30
2023-02-28T16:32:51.411Z,13.18
2023-02-28T16:35:21.224Z,15.48
2023-02-28T16:37:53.523Z,13.05
2023-02-28T16:40:24.929Z,14.68
2023-02-28T16:42:56.307Z,12.40
2023-02-28T16:45:27.100Z,10.38
2023-02-28T16:47:56.708Z,12.15
2023-02-28T16:50:28.006Z,13.57
2023-02-28T16:53:00.454Z,14.38
2023-02-28T16:55:30.073Z,17.23
2023-02-28T16:58:00.373Z,15.25
2023-02-28T17:00:30.742Z,12.63
2023-02-28T17:03:00.225Z,10.55
2023-02-28T17:05:35.432Z,13.23
2023-02-28T17:08:06.685Z,9.88
2023-02-28T17:10:35.293Z,13.90
2023-02-28T17:13:14.557Z,11.32
2023-02-28T17:15:46.254Z,14.18
2023-02-28T17:18:17.063Z,9.60
2023-02-28T17:20:45.862Z,14.40
2023-02-28T17:23:17.048Z,9.80
2023-02-28T17:25:57.598Z,11.32
2023-02-28T17:28:27.158Z,12.23
2023-02-28T17:30:55.970Z,14.68
2023-02-28T17:33:24.702Z,12.00
2023-02-28T17:35:53.397Z,13.10
2023-02-28T17:38:24.223Z,12.70
2023-02-28T17:40:58.164Z,13.07
2023-02-28T17:43:27.965Z,11.40
2023-02-28T17:45:58.023Z,11.93
2023-02-28T17:48:26.761Z,12.35
2023-02-28T17:50:55.676Z,11.32
2023-02-28T17:53:26.028Z,10.48
2023-02-28T17:55:54.995Z,13.85
2023-02-28T17:58:23.644Z,15.20
2023-02-28T18:00:54.990Z,14.00
2023-02-28T18:03:25.389Z,13.85
2023-02-28T18:05:54.189Z,11.90
2023-02-28T18:08:23.650Z,11.80
2023-02-28T18:10:54.280Z,13.57
2023-02-28T18:13:22.964Z,12.00
2023-02-28T18:15:52.075Z,14.50
2023-02-28T18:18:20.747Z,15.65
2023-02-28T18:20:50.981Z,16.00
2023-02-28T18:23:21.262Z,15.80
2023-02-28T18:25:49.889Z,15.65
2023-02-28T18:28:20.019Z,15.90
2023-02-28T18:30:48.656Z,19.33
2023-02-28T18:33:17.280Z,19.60
2023-02-28T18:35:46.324Z,24.25
2023-02-28T18:38:17.122Z,25.63
2023-02-28T18:40:54.158Z,23.87
2023-02-28T18:43:24.785Z,24.00
2023-02-28T18:45:53.539Z,26.10
2023-02-28T18:48:24.513Z,27.02
2023-02-28T18:50:53.710Z,24.27
2023-02-28T18:53:22.614Z,24.48
2023-02-28T18:55:51.439Z,25.15
2023-02-28T18:58:20.125Z,25.02
2023-02-28T19:00:50.802Z,26.90
2023-02-28T19:03:20.262Z,26.90
2023-02-28T19:05:50.189Z,26.60
2023-02-28T19:08:20.220Z,22.08
2023-02-28T19:10:49.008Z,22.08
2023-02-28T19:13:18.043Z,23.02
2023-02-28T19:15:46.730Z,21.10
2023-02-28T19:18:16.703Z,23.15
2023-02-28T19:20:47.042Z,21.95
2023-02-28T19:23:15.865Z,22.30
2023-02-28T19:25:45.210Z,24.42
2023-02-28T19:28:14.337Z,23.98
2023-02-28T19:30:49.073Z,21.88
2023-02-28T19:33:19.293Z,21.98
2023-02-28T19:35:48.606Z,23.60
2023-02-28T19:38:17.915Z,25.88
2023-02-28T19:40:46.926Z,23.75
2023-02-28T19:43:15.901Z,23.90
2023-02-28T19:45:44.726Z,28.60
2023-02-28T19:48:13.260Z,24.45
2023-02-28T19:50:43.397Z,29.90
2023-02-28T19:53:11.937Z,29.00
2023-02-28T19:55:40.606Z,38.30
2023-02-28T19:58:09.095Z,29.13
2023-02-28T20:00:37.942Z,37.35
2023-02-28T20:03:06.901Z,31.35
2023-02-28T20:05:35.582Z,31.90
2023-02-28T20:08:06.159Z,32.70
2023-02-28T20:10:36.474Z,39.03
2023-02-28T20:13:05.698Z,42.40
2023-02-28T20:15:34.276Z,38.67
2023-02-28T20:18:03.730Z,41.40
2023-02-28T20:20:36.573Z,37.13
2023-02-28T20:23:08.215Z,37.65
2023-02-28T20:25:41.000Z,36.72
2023-02-28T20:28:10.203Z,40.60
2023-02-28T20:30:42.164Z,42.42
2023-02-28T20:33:11.730Z,39.83
2023-02-28T20:35:40.415Z,47.03
2023-02-28T20:38:10.752Z,41.58
2023-02-28T20:40:39.921Z,49.20
2023-02-28T20:43:09.269Z,40.35
2023-02-28T20:45:40.629Z,49.38
2023-02-28T20:48:09.312Z,37.83
2023-02-28T20:50:37.993Z,44.35
2023-02-28T20:53:07.145Z,39.75
2023-02-28T20:55:37.788Z,41.30
2023-02-28T20:58:06.246Z,38.90
2023-02-28T21:00:35.230Z,42.42
2023-02-28T21:03:04.190Z,38.53
2023-02-28T21:05:33.464Z,40.13
2023-02-28T21:08:02.527Z,39.55
2023-02-28T21:10:31.451Z,32.97
2023-02-28T21:13:01.699Z,40.42
2023-02-28T21:15:30.322Z,31.27
2023-02-28T21:17:59.349Z,32.92
2023-02-28T21:20:28.262Z,31.50
2023-02-28T21:22:56.664Z,32.03
2023-02-28T21:25:26.168Z,32.83
2023-02-28T21:27:55.975Z,34.20
2023-02-28T21:30:26.337Z,36.92
2023-02-28T21:32:54.958Z,32.22
2023-02-28T21:35:23.529Z,33.45
2023-02-28T21:37:52.271Z,32.33
2023-02-28T21:40:21.226Z,35.17
2023-02-28T21:42:50.188Z,40.08
2023-02-28T21:45:18.829Z,34.40
2023-02-28T21:47:48.903Z,42.90
2023-02-28T21:50:17.761Z,35.65
2023-02-28T21:52:46.425Z,44.28
2023-02-28T21:55:18.216Z,36.10
2023-02-28T21:57:46.768Z,40.88
2023-02-28T22:00:17.147Z,36.58
2023-02-28T22:02:46.157Z,38.25
2023-02-28T22:05:16.228Z,39.05
2023-02-28T22:07:46.264Z,43.08
2023-02-28T22:10:16.464Z,39.20
2023-02-28T22:12:45.804Z,42.97
2023-02-28T22:15:14.286Z,44.63
2023-02-28T22:17:42.981Z,42.08
2023-02-28T22:20:13.205Z,41.80
2023-02-28T22:22:43.348Z,43.72
2023-02-28T22:25:12.037Z,41.72
2023-02-28T22:27:40.793Z,37.97
2023-02-28T22:30:10.624Z,39.35
2023-02-28T22:32:39.159Z,36.97
2023-02-28T22:35:09.092Z,36.25
2023-02-28T22:37:37.854Z,35.80
2023-02-28T22:40:10.129Z,36.10
2023-02-28T22:42:38.855Z,36.80
2023-02-28T22:45:08.493Z,35.15
2023-02-28T22:47:37.629Z,33.72
2023-02-28T22:50:06.920Z,34.13
2023-02-28T22:52:35.489Z,34.60
2023-02-28T22:55:03.958Z,35.58
2023-02-28T22:57:33.872Z,34.00
2023-02-28T23:00:02.555Z,34.33
2023-02-28T23:02:32.188Z,34.70
2023-02-28T23:05:01.240Z,35.88
2023-02-28T23:07:29.870Z,37.00
2023-02-28T23:09:59.328Z,36.50
2023-02-28T23:12:28.164Z,38.00
2023-02-28T23:14:58.309Z,38.97
2023-02-28T23:17:26.820Z,37.78
2023-02-28T23:19:56.488Z,40.92
2023-02-28T23:22:24.970Z,39.78
2023-02-28T23:24:54.613Z,36.80
2023-02-28T23:27:23.390Z,36.47
2023-02-28T23:29:51.970Z,35.33
2023-02-28T23:32:21.913Z,35.05
2023-02-28T23:34:50.455Z,37.33
2023-02-28T23:37:19.064Z,37.00
2023-02-28T23:39:47.938Z,38.22
2023-02-28T23:42:16.908Z,35.67
2023-02-28T23:44:45.303Z,35.15
2023-02-28T23:47:14.549Z,37.00
2023-02-28T23:49:44.654Z,36.63
2023-02-28T23:52:13.102Z,37.05
2023-02-28T23:54:42.171Z,35.80
2023-02-28T23:57:10.704Z,36.45
2023-02-28T23:59:39.201Z,36.85
